sensor_id;sensor_type;location;lat;lon;timestamp;pressure;altitude;pressure_sealevel;temperature;humidity
51297;BME280;37380;45.186;9.792;2023-04-23T00:00:41;100705.47;;;14.49;100.00
51297;BME280;37380;45.186;9.792;2023-04-23T00:03:09;100721.44;;;14.58;100.00
51297;BME280;37380;45.186;9.792;2023-04-23T00:05:42;100655.78;;;14.17;100.00
51297;BME280;37380;45.186;9.792;2023-04-23T00:08:10;100610.34;;;13.77;100.00
51297;BME280;37380;45.186;9.792;2023-04-23T00:10:37;100648.31;;;13.93;100.00
51297;BME280;37380;45.186;9.792;2023-04-23T00:13:05;100656.09;;;13.89;100.00
51297;BME280;37380;45.186;9.792;2023-04-23T00:15:32;100767.25;;;14.71;100.00
51297;BME280;37380;45.186;9.792;2023-04-23T00:17:59;100703.09;;;14.17;100.00
51297;BME280;37380;45.186;9.792;2023-04-23T00:20:26;100746.59;;;14.47;100.00
51297;BME280;37380;45.186;9.792;2023-04-23T00:22:53;100650.41;;;13.67;100.00
51297;BME280;37380;45.186;9.792;2023-04-23T00:25:20;100523.56;;;12.86;100.00
51297;BME280;37380;45.186;9.792;2023-04-23T00:27:54;100680.06;;;13.62;100.00
51297;BME280;37380;45.186;9.792;2023-04-23T00:30:48;100704.19;;;13.85;100.00
51297;BME280;37380;45.186;9.792;2023-04-23T00:33:15;100702.44;;;13.87;100.00
51297;BME280;37380;45.186;9.792;2023-04-23T00:35:42;100698.75;;;13.78;100.00
51297;BME280;37380;45.186;9.792;2023-04-23T00:38:10;100738.78;;;14.06;100.00
51297;BME280;37380;45.186;9.792;2023-04-23T00:40:37;100602.94;;;13.56;100.00
51297;BME280;37380;45.186;9.792;2023-04-23T00:43:04;100642.97;;;13.89;100.00
51297;BME280;37380;45.186;9.792;2023-04-23T00:45:32;100581.63;;;13.43;100.00
51297;BME280;37380;45.186;9.792;2023-04-23T00:48:01;100710.56;;;14.41;100.00
51297;BME280;37380;45.186;9.792;2023-04-23T00:50:28;100742.75;;;14.74;100.00
51297;BME280;37380;45.186;9.792;2023-04-23T00:52:55;100600.31;;;14.02;100.00
51297;BME280;37380;45.186;9.792;2023-04-23T00:55:22;100702.25;;;14.64;100.00
51297;BME280;37380;45.186;9.792;2023-04-23T00:57:50;100753.38;;;14.80;100.00
51297;BME280;37380;45.186;9.792;2023-04-23T01:00:18;100619.38;;;13.92;100.00
51297;BME280;37380;45.186;9.792;2023-04-23T01:02:47;100600.66;;;13.75;100.00
51297;BME280;37380;45.186;9.792;2023-04-23T01:05:16;100678.47;;;14.12;100.00
51297;BME280;37380;45.186;9.792;2023-04-23T01:07:45;100727.91;;;14.33;100.00
51297;BME280;37380;45.186;9.792;2023-04-23T01:10:13;100703.91;;;14.15;100.00
51297;BME280;37380;45.186;9.792;2023-04-23T01:12:40;100521.97;;;13.34;100.00
51297;BME280;37380;45.186;9.792;2023-04-23T01:15:08;100705.25;;;14.38;100.00
51297;BME280;37380;45.186;9.792;2023-04-23T01:17:35;100674.19;;;14.17;100.00
51297;BME280;37380;45.186;9.792;2023-04-23T01:20:05;100645.06;;;14.05;100.00
51297;BME280;37380;45.186;9.792;2023-04-23T01:22:36;100670.34;;;14.00;100.00
51297;BME280;37380;45.186;9.792;2023-04-23T01:25:04;100725.28;;;14.32;100.00
51297;BME280;37380;45.186;9.792;2023-04-23T01:27:38;100680.84;;;14.00;100.00
51297;BME280;37380;45.186;9.792;2023-04-23T01:30:42;100654.47;;;13.95;100.00
51297;BME280;37380;45.186;9.792;2023-04-23T01:33:43;100597.28;;;13.80;100.00
51297;BME280;37380;45.186;9.792;2023-04-23T01:36:24;100649.28;;;13.97;100.00
51297;BME280;37380;45.186;9.792;2023-04-23T01:38:52;100603.69;;;13.52;100.00
51297;BME280;37380;45.186;9.792;2023-04-23T01:41:19;100703.91;;;14.15;100.00
51297;BME280;37380;45.186;9.792;2023-04-23T01:43:46;100611.28;;;13.79;100.00
51297;BME280;37380;45.186;9.792;2023-04-23T01:46:15;100581.09;;;13.59;100.00
51297;BME280;37380;45.186;9.792;2023-04-23T01:48:43;100729.28;;;14.57;100.00
51297;BME280;37380;45.186;9.792;2023-04-23T01:51:10;100499.63;;;13.12;100.00
51297;BME280;37380;45.186;9.792;2023-04-23T01:53:37;100538.13;;;13.55;100.00
51297;BME280;37380;45.186;9.792;2023-04-23T01:56:05;100720.56;;;14.59;100.00
51297;BME280;37380;45.186;9.792;2023-04-23T01:58:33;100658.25;;;14.08;100.00
51297;BME280;37380;45.186;9.792;2023-04-23T02:01:01;100721.31;;;14.52;100.00
51297;BME280;37380;45.186;9.792;2023-04-23T02:03:28;100713.78;;;14.26;100.00
51297;BME280;37380;45.186;9.792;2023-04-23T02:05:57;100644.53;;;13.79;100.00
51297;BME280;37380;45.186;9.792;2023-04-23T02:08:26;100719.91;;;14.25;100.00
51297;BME280;37380;45.186;9.792;2023-04-23T02:10:53;100719.75;;;14.18;100.00
51297;BME280;37380;45.186;9.792;2023-04-23T02:13:21;100707.19;;;14.03;100.00
51297;BME280;37380;45.186;9.792;2023-04-23T02:15:48;100678.34;;;14.06;100.00
51297;BME280;37380;45.186;9.792;2023-04-23T02:18:16;100624.75;;;13.54;100.00
51297;BME280;37380;45.186;9.792;2023-04-23T02:20:43;100707.75;;;13.90;100.00
51297;BME280;37380;45.186;9.792;2023-04-23T02:23:11;100550.03;;;12.61;100.00
51297;BME280;37380;45.186;9.792;2023-04-23T02:25:38;100726.81;;;13.79;100.00
51297;BME280;37380;45.186;9.792;2023-04-23T02:28:12;100493.25;;;12.60;100.00
51297;BME280;37380;45.186;9.792;2023-04-23T02:31:06;100732.28;;;13.89;100.00
51297;BME280;37380;45.186;9.792;2023-04-23T02:33:37;100681.00;;;13.65;100.00
51297;BME280;37380;45.186;9.792;2023-04-23T02:36:04;100744.78;;;14.02;100.00
51297;BME280;37380;45.186;9.792;2023-04-23T02:38:31;100674.28;;;13.39;100.00
51297;BME280;37380;45.186;9.792;2023-04-23T02:40:58;100732.78;;;13.72;100.00
51297;BME280;37380;45.186;9.792;2023-04-23T02:43:26;100579.69;;;12.95;100.00
51297;BME280;37380;45.186;9.792;2023-04-23T02:45:54;100685.13;;;13.54;100.00
51297;BME280;37380;45.186;9.792;2023-04-23T02:48:21;100723.47;;;13.87;100.00
51297;BME280;37380;45.186;9.792;2023-04-23T02:50:55;100690.81;;;13.75;100.00
51297;BME280;37380;45.186;9.792;2023-04-23T02:53:56;100679.44;;;13.73;100.00
51297;BME280;37380;45.186;9.792;2023-04-23T02:56:50;100655.06;;;13.40;100.00
51297;BME280;37380;45.186;9.792;2023-04-23T02:59:18;100709.47;;;13.47;100.00
51297;BME280;37380;45.186;9.792;2023-04-23T03:01:47;100507.28;;;12.27;100.00
51297;BME280;37380;45.186;9.792;2023-04-23T03:04:14;100707.13;;;13.59;100.00
51297;BME280;37380;45.186;9.792;2023-04-23T03:06:41;100720.44;;;13.30;100.00
51297;BME280;37380;45.186;9.792;2023-04-23T03:09:08;100462.16;;;12.03;100.00
51297;BME280;37380;45.186;9.792;2023-04-23T03:11:36;100431.97;;;11.82;100.00
51297;BME280;37380;45.186;9.792;2023-04-23T03:14:04;100529.31;;;12.35;100.00
51297;BME280;37380;45.186;9.792;2023-04-23T03:16:32;100730.69;;;13.57;100.00
51297;BME280;37380;45.186;9.792;2023-04-23T03:18:59;100709.59;;;13.53;100.00
51297;BME280;37380;45.186;9.792;2023-04-23T03:21:27;100632.06;;;12.91;100.00
51297;BME280;37380;45.186;9.792;2023-04-23T03:23:54;100549.09;;;12.59;100.00
51297;BME280;37380;45.186;9.792;2023-04-23T03:26:22;100600.00;;;13.05;100.00
51297;BME280;37380;45.186;9.792;2023-04-23T03:28:56;100704.91;;;13.40;100.00
51297;BME280;37380;45.186;9.792;2023-04-23T03:31:52;100691.00;;;13.44;100.00
51297;BME280;37380;45.186;9.792;2023-04-23T03:34:19;100603.84;;;12.81;100.00
51297;BME280;37380;45.186;9.792;2023-04-23T03:36:46;100685.69;;;13.41;100.00
51297;BME280;37380;45.186;9.792;2023-04-23T03:39:15;100489.53;;;12.15;100.00
51297;BME280;37380;45.186;9.792;2023-04-23T03:41:48;100592.88;;;12.99;100.00
51297;BME280;37380;45.186;9.792;2023-04-23T03:44:18;100453.94;;;12.22;100.00
51297;BME280;37380;45.186;9.792;2023-04-23T03:46:46;100702.56;;;13.52;100.00
51297;BME280;37380;45.186;9.792;2023-04-23T03:49:15;100696.75;;;13.65;100.00
51297;BME280;37380;45.186;9.792;2023-04-23T03:51:43;100573.47;;;12.91;100.00
51297;BME280;37380;45.186;9.792;2023-04-23T03:54:10;100505.56;;;12.64;100.00
51297;BME280;37380;45.186;9.792;2023-04-23T03:56:57;100494.28;;;12.68;100.00
51297;BME280;37380;45.186;9.792;2023-04-23T03:59:31;100722.00;;;13.58;100.00
51297;BME280;37380;45.186;9.792;2023-04-23T04:01:59;100720.81;;;13.85;100.00
51297;BME280;37380;45.186;9.792;2023-04-23T04:04:26;100615.56;;;12.97;100.00
51297;BME280;37380;45.186;9.792;2023-04-23T04:06:55;100711.84;;;13.36;100.00
51297;BME280;37380;45.186;9.792;2023-04-23T04:09:26;100512.81;;;12.03;100.00
51297;BME280;37380;45.186;9.792;2023-04-23T04:11:54;100393.22;;;11.69;100.00
51297;BME280;37380;45.186;9.792;2023-04-23T04:14:22;100586.94;;;12.68;100.00
51297;BME280;37380;45.186;9.792;2023-04-23T04:16:49;100504.53;;;12.21;100.00
51297;BME280;37380;45.186;9.792;2023-04-23T04:19:16;100561.25;;;12.55;100.00
51297;BME280;37380;45.186;9.792;2023-04-23T04:21:43;100591.97;;;12.61;100.00
51297;BME280;37380;45.186;9.792;2023-04-23T04:24:10;100713.47;;;13.31;100.00
51297;BME280;37380;45.186;9.792;2023-04-23T04:26:37;100493.09;;;11.84;100.00
51297;BME280;37380;45.186;9.792;2023-04-23T04:29:12;100622.25;;;12.48;100.00
51297;BME280;37380;45.186;9.792;2023-04-23T04:32:14;100699.59;;;13.00;100.00
51297;BME280;37380;45.186;9.792;2023-04-23T04:35:09;100693.44;;;13.00;100.00
51297;BME280;37380;45.186;9.792;2023-04-23T04:37:39;100586.00;;;12.32;100.00
51297;BME280;37380;45.186;9.792;2023-04-23T04:40:06;100428.34;;;11.44;100.00
51297;BME280;37380;45.186;9.792;2023-04-23T04:42:34;100622.66;;;12.65;100.00
51297;BME280;37380;45.186;9.792;2023-04-23T04:45:02;100575.47;;;12.30;100.00
51297;BME280;37380;45.186;9.792;2023-04-23T04:47:30;100731.09;;;13.36;100.00
51297;BME280;37380;45.186;9.792;2023-04-23T04:49:58;100726.63;;;13.32;100.00
51297;BME280;37380;45.186;9.792;2023-04-23T04:52:26;100719.72;;;13.36;100.00
51297;BME280;37380;45.186;9.792;2023-04-23T04:54:53;100723.84;;;13.64;100.00
51297;BME280;37380;45.186;9.792;2023-04-23T04:57:21;100697.44;;;13.56;100.00
51297;BME280;37380;45.186;9.792;2023-04-23T04:59:49;100739.16;;;13.84;100.00
51297;BME280;37380;45.186;9.792;2023-04-23T05:02:16;100740.28;;;13.95;100.00
51297;BME280;37380;45.186;9.792;2023-04-23T05:04:43;100717.38;;;13.89;100.00
51297;BME280;37380;45.186;9.792;2023-04-23T05:07:10;100713.50;;;13.72;100.00
51297;BME280;37380;45.186;9.792;2023-04-23T05:09:44;100737.25;;;13.76;100.00
51297;BME280;37380;45.186;9.792;2023-04-23T05:12:38;100701.50;;;13.83;100.00
51297;BME280;37380;45.186;9.792;2023-04-23T05:15:10;100754.78;;;14.18;100.00
51297;BME280;37380;45.186;9.792;2023-04-23T05:17:39;100736.84;;;13.97;100.00
51297;BME280;37380;45.186;9.792;2023-04-23T05:20:08;100611.88;;;13.25;100.00
51297;BME280;37380;45.186;9.792;2023-04-23T05:22:40;100757.88;;;14.40;100.00
51297;BME280;37380;45.186;9.792;2023-04-23T05:25:09;100715.38;;;14.18;100.00
51297;BME280;37380;45.186;9.792;2023-04-23T05:27:44;100729.91;;;14.45;100.00
51297;BME280;37380;45.186;9.792;2023-04-23T05:30:39;100664.38;;;14.53;100.00
51297;BME280;37380;45.186;9.792;2023-04-23T05:33:06;100689.38;;;14.79;100.00
51297;BME280;37380;45.186;9.792;2023-04-23T05:35:33;100738.75;;;15.50;100.00
51297;BME280;37380;45.186;9.792;2023-04-23T05:38:00;100602.25;;;15.17;100.00
51297;BME280;37380;45.186;9.792;2023-04-23T05:40:28;100739.63;;;16.86;100.00
51297;BME280;37380;45.186;9.792;2023-04-23T05:42:57;100726.28;;;17.81;100.00
51297;BME280;37380;45.186;9.792;2023-04-23T05:45:24;100745.91;;;18.30;100.00
51297;BME280;37380;45.186;9.792;2023-04-23T05:47:51;100766.22;;;18.44;100.00
51297;BME280;37380;45.186;9.792;2023-04-23T05:50:19;100742.59;;;17.23;100.00
51297;BME280;37380;45.186;9.792;2023-04-23T05:52:47;100532.69;;;16.57;100.00
51297;BME280;37380;45.186;9.792;2023-04-23T05:55:14;100640.75;;;15.70;100.00
51297;BME280;37380;45.186;9.792;2023-04-23T05:57:44;100516.72;;;14.84;100.00
51297;BME280;37380;45.186;9.792;2023-04-23T06:00:12;100769.44;;;16.76;100.00
51297;BME280;37380;45.186;9.792;2023-04-23T06:02:45;100765.31;;;17.06;100.00
51297;BME280;37380;45.186;9.792;2023-04-23T06:05:46;100700.75;;;16.71;100.00
51297;BME280;37380;45.186;9.792;2023-04-23T06:08:47;100752.47;;;16.56;100.00
51297;BME280;37380;45.186;9.792;2023-04-23T06:11:28;100779.03;;;15.43;100.00
51297;BME280;37380;45.186;9.792;2023-04-23T06:13:58;100760.38;;;15.84;100.00
51297;BME280;37380;45.186;9.792;2023-04-23T06:16:25;100728.78;;;15.87;100.00
51297;BME280;37380;45.186;9.792;2023-04-23T06:18:52;100730.50;;;15.26;100.00
51297;BME280;37380;45.186;9.792;2023-04-23T06:21:19;100776.81;;;16.33;100.00
51297;BME280;37380;45.186;9.792;2023-04-23T06:23:47;100766.94;;;16.15;100.00
51297;BME280;37380;45.186;9.792;2023-04-23T06:26:14;100738.75;;;16.10;100.00
51297;BME280;37380;45.186;9.792;2023-04-23T06:28:49;100739.25;;;15.26;100.00
51297;BME280;37380;45.186;9.792;2023-04-23T06:31:56;100746.34;;;14.79;100.00
51297;BME280;37380;45.186;9.792;2023-04-23T06:34:23;100708.88;;;14.45;100.00
51297;BME280;37380;45.186;9.792;2023-04-23T06:36:50;100746.47;;;14.85;100.00
51297;BME280;37380;45.186;9.792;2023-04-23T06:39:17;100695.19;;;14.61;100.00
51297;BME280;37380;45.186;9.792;2023-04-23T06:41:44;100773.25;;;15.12;100.00
51297;BME280;37380;45.186;9.792;2023-04-23T06:44:30;100690.59;;;14.98;100.00
51297;BME280;37380;45.186;9.792;2023-04-23T06:46:57;100778.38;;;16.16;100.00
51297;BME280;37380;45.186;9.792;2023-04-23T06:49:24;100761.75;;;16.23;100.00
51297;BME280;37380;45.186;9.792;2023-04-23T06:51:51;100668.28;;;15.95;100.00
51297;BME280;37380;45.186;9.792;2023-04-23T06:54:18;100753.41;;;15.89;100.00
51297;BME280;37380;45.186;9.792;2023-04-23T06:56:45;100633.25;;;14.79;100.00
51297;BME280;37380;45.186;9.792;2023-04-23T06:59:12;100756.53;;;16.27;100.00
51297;BME280;37380;45.186;9.792;2023-04-23T07:01:44;100627.09;;;16.04;100.00
51297;BME280;37380;45.186;9.792;2023-04-23T07:04:11;100766.66;;;17.60;100.00
51297;BME280;37380;45.186;9.792;2023-04-23T07:06:38;100737.06;;;16.95;100.00
51297;BME280;37380;45.186;9.792;2023-04-23T07:09:12;100730.88;;;18.23;100.00
51297;BME280;37380;45.186;9.792;2023-04-23T07:12:13;100724.91;;;19.18;100.00
51297;BME280;37380;45.186;9.792;2023-04-23T07:15:07;100767.28;;;19.47;100.00
51297;BME280;37380;45.186;9.792;2023-04-23T07:17:34;100654.06;;;17.91;100.00
51297;BME280;37380;45.186;9.792;2023-04-23T07:20:02;100762.00;;;19.03;100.00
51297;BME280;37380;45.186;9.792;2023-04-23T07:22:34;100753.09;;;18.76;100.00
51297;BME280;37380;45.186;9.792;2023-04-23T07:25:01;100684.94;;;17.97;100.00
51297;BME280;37380;45.186;9.792;2023-04-23T07:27:36;100759.19;;;18.44;100.00
51297;BME280;37380;45.186;9.792;2023-04-23T07:30:34;100723.09;;;18.68;100.00
51297;BME280;37380;45.186;9.792;2023-04-23T07:33:01;100648.03;;;18.18;100.00
51297;BME280;37380;45.186;9.792;2023-04-23T07:35:29;100755.50;;;20.49;100.00
51297;BME280;37380;45.186;9.792;2023-04-23T07:37:56;100606.19;;;20.18;100.00
51297;BME280;37380;45.186;9.792;2023-04-23T07:40:24;100742.91;;;20.88;100.00
51297;BME280;37380;45.186;9.792;2023-04-23T07:42:51;100749.28;;;20.63;100.00
51297;BME280;37380;45.186;9.792;2023-04-23T07:45:18;100698.41;;;19.36;100.00
51297;BME280;37380;45.186;9.792;2023-04-23T07:47:46;100731.00;;;18.66;100.00
51297;BME280;37380;45.186;9.792;2023-04-23T07:50:14;100664.91;;;18.97;100.00
51297;BME280;37380;45.186;9.792;2023-04-23T07:52:41;100637.47;;;18.64;100.00
51297;BME280;37380;45.186;9.792;2023-04-23T07:55:08;100722.16;;;18.50;100.00
51297;BME280;37380;45.186;9.792;2023-04-23T07:57:35;100718.72;;;19.33;100.00
51297;BME280;37380;45.186;9.792;2023-04-23T08:00:03;100706.34;;;18.81;100.00
51297;BME280;37380;45.186;9.792;2023-04-23T08:02:37;100748.72;;;19.22;100.00
51297;BME280;37380;45.186;9.792;2023-04-23T08:05:05;100633.94;;;19.30;100.00
51297;BME280;37380;45.186;9.792;2023-04-23T08:07:32;100600.88;;;20.21;100.00
51297;BME280;37380;45.186;9.792;2023-04-23T08:09:59;100597.56;;;19.81;100.00
51297;BME280;37380;45.186;9.792;2023-04-23T08:12:30;100748.09;;;21.07;100.00
51297;BME280;37380;45.186;9.792;2023-04-23T08:14:57;100594.25;;;18.24;100.00
51297;BME280;37380;45.186;9.792;2023-04-23T08:17:31;100668.88;;;20.36;100.00
51297;BME280;37380;45.186;9.792;2023-04-23T08:19:58;100639.19;;;19.50;100.00
51297;BME280;37380;45.186;9.792;2023-04-23T08:22:25;100677.19;;;18.72;100.00
51297;BME280;37380;45.186;9.792;2023-04-23T08:24:52;100599.44;;;17.92;100.00
51297;BME280;37380;45.186;9.792;2023-04-23T08:27:19;100567.78;;;18.12;100.00
51297;BME280;37380;45.186;9.792;2023-04-23T08:30:07;100695.78;;;18.98;100.00
51297;BME280;37380;45.186;9.792;2023-04-23T08:33:08;100709.00;;;18.90;100.00
51297;BME280;37380;45.186;9.792;2023-04-23T08:36:02;100692.25;;;18.90;100.00
51297;BME280;37380;45.186;9.792;2023-04-23T08:38:29;100704.59;;;19.09;100.00
51297;BME280;37380;45.186;9.792;2023-04-23T08:40:58;100716.03;;;19.62;100.00
51297;BME280;37380;45.186;9.792;2023-04-23T08:43:46;100666.66;;;18.76;100.00
51297;BME280;37380;45.186;9.792;2023-04-23T08:46:18;100735.50;;;19.15;100.00
51297;BME280;37380;45.186;9.792;2023-04-23T08:48:46;100728.41;;;19.34;100.00
51297;BME280;37380;45.186;9.792;2023-04-23T08:51:17;100742.56;;;19.25;100.00
51297;BME280;37380;45.186;9.792;2023-04-23T08:53:48;100732.81;;;19.50;100.00
51297;BME280;37380;45.186;9.792;2023-04-23T08:56:17;100706.31;;;19.68;100.00
51297;BME280;37380;45.186;9.792;2023-04-23T08:58:46;100686.88;;;19.71;98.66
51297;BME280;37380;45.186;9.792;2023-04-23T09:01:13;100722.03;;;20.18;96.90
51297;BME280;37380;45.186;9.792;2023-04-23T09:03:41;100724.88;;;19.61;100.00
51297;BME280;37380;45.186;9.792;2023-04-23T09:06:08;100714.81;;;20.60;95.95
51297;BME280;37380;45.186;9.792;2023-04-23T09:08:35;100723.78;;;20.23;95.97
51297;BME280;37380;45.186;9.792;2023-04-23T09:11:04;100635.31;;;20.29;92.82
51297;BME280;37380;45.186;9.792;2023-04-23T09:13:32;100676.09;;;20.09;95.14
51297;BME280;37380;45.186;9.792;2023-04-23T09:16:07;100723.53;;;20.74;93.31
51297;BME280;37380;45.186;9.792;2023-04-23T09:18:55;100685.31;;;21.84;87.01
51297;BME280;37380;45.186;9.792;2023-04-23T09:21:23;100671.94;;;21.06;89.95
51297;BME280;37380;45.186;9.792;2023-04-23T09:23:50;100666.53;;;19.76;97.27
51297;BME280;37380;45.186;9.792;2023-04-23T09:26:21;100689.97;;;20.67;95.27
51297;BME280;37380;45.186;9.792;2023-04-23T09:28:55;100600.88;;;20.21;94.06
51297;BME280;37380;45.186;9.792;2023-04-23T09:31:53;100665.44;;;21.40;89.83
51297;BME280;37380;45.186;9.792;2023-04-23T09:34:22;100707.44;;;20.95;90.68
51297;BME280;37380;45.186;9.792;2023-04-23T09:36:51;100614.84;;;20.49;93.40
51297;BME280;37380;45.186;9.792;2023-04-23T09:39:21;100709.16;;;21.02;90.14
51297;BME280;37380;45.186;9.792;2023-04-23T09:41:52;100713.56;;;21.98;89.38
51297;BME280;37380;45.186;9.792;2023-04-23T09:44:21;100527.13;;;21.46;85.01
51297;BME280;37380;45.186;9.792;2023-04-23T09:46:49;100663.88;;;21.16;88.99
51297;BME280;37380;45.186;9.792;2023-04-23T09:49:16;100619.38;;;20.35;93.41
51297;BME280;37380;45.186;9.792;2023-04-23T09:51:45;100685.94;;;22.71;88.60
51297;BME280;37380;45.186;9.792;2023-04-23T09:54:15;100604.56;;;22.55;82.16
51297;BME280;37380;45.186;9.792;2023-04-23T09:56:42;100717.47;;;22.40;86.10
51297;BME280;37380;45.186;9.792;2023-04-23T10:02:03;100687.22;;;21.76;88.63
51297;BME280;37380;45.186;9.792;2023-04-23T10:04:31;100652.47;;;22.55;84.11
51297;BME280;37380;45.186;9.792;2023-04-23T10:07:03;100678.34;;;22.45;84.17
51297;BME280;37380;45.186;9.792;2023-04-23T10:09:39;100675.22;;;22.74;81.38
51297;BME280;37380;45.186;9.792;2023-04-23T10:12:08;100653.91;;;23.28;83.24
51297;BME280;37380;45.186;9.792;2023-04-23T10:14:56;100665.56;;;23.24;76.39
51297;BME280;37380;45.186;9.792;2023-04-23T10:17:25;100658.84;;;23.00;75.18
51297;BME280;37380;45.186;9.792;2023-04-23T10:19:54;100672.47;;;23.81;75.28
51297;BME280;37380;45.186;9.792;2023-04-23T10:22:21;100596.50;;;23.09;75.24
51297;BME280;37380;45.186;9.792;2023-04-23T10:24:55;100641.38;;;22.82;77.88
51297;BME280;37380;45.186;9.792;2023-04-23T10:27:30;100681.50;;;23.26;77.41
51297;BME280;37380;45.186;9.792;2023-04-23T10:30:41;100552.41;;;22.93;79.80
51297;BME280;37380;45.186;9.792;2023-04-23T10:33:42;100627.81;;;22.98;75.36
51297;BME280;37380;45.186;9.792;2023-04-23T10:36:25;100568.00;;;22.06;80.85
51297;BME280;37380;45.186;9.792;2023-04-23T10:38:53;100608.84;;;22.03;79.08
51297;BME280;37380;45.186;9.792;2023-04-23T10:41:33;100652.25;;;23.23;74.75
51297;BME280;37380;45.186;9.792;2023-04-23T10:44:03;100625.69;;;22.64;77.00
51297;BME280;37380;45.186;9.792;2023-04-23T10:46:32;100612.88;;;23.37;75.18
51297;BME280;37380;45.186;9.792;2023-04-23T10:49:10;100602.81;;;23.50;72.34
51297;BME280;37380;45.186;9.792;2023-04-23T10:51:41;100603.41;;;22.11;77.17
51297;BME280;37380;45.186;9.792;2023-04-23T10:54:32;100612.59;;;21.88;79.35
51297;BME280;37380;45.186;9.792;2023-04-23T10:57:01;100529.66;;;21.59;78.61
51297;BME280;37380;45.186;9.792;2023-04-23T10:59:38;100611.44;;;21.38;81.36
51297;BME280;37380;45.186;9.792;2023-04-23T11:02:10;100597.88;;;21.61;79.98
51297;BME280;37380;45.186;9.792;2023-04-23T11:04:43;100646.84;;;23.26;75.91
51297;BME280;37380;45.186;9.792;2023-04-23T11:07:12;100580.03;;;22.87;72.21
51297;BME280;37380;45.186;9.792;2023-04-23T11:09:45;100571.91;;;23.41;72.86
51297;BME280;37380;45.186;9.792;2023-04-23T11:14:53;100636.19;;;23.72;69.39
51297;BME280;37380;45.186;9.792;2023-04-23T11:18:07;100600.50;;;24.57;68.27
51297;BME280;37380;45.186;9.792;2023-04-23T11:20:10;100638.81;;;24.92;62.98
51297;BME280;37380;45.186;9.792;2023-04-23T11:25:24;100599.41;;;22.98;67.92
51297;BME280;37380;45.186;9.792;2023-04-23T11:27:59;100623.94;;;22.01;72.25
51297;BME280;37380;45.186;9.792;2023-04-23T11:30:53;100627.22;;;22.77;70.90
51297;BME280;37380;45.186;9.792;2023-04-23T11:33:20;100636.94;;;23.33;67.59
51297;BME280;37380;45.186;9.792;2023-04-23T11:35:48;100622.16;;;23.16;70.70
51297;BME280;37380;45.186;9.792;2023-04-23T11:38:15;100533.91;;;22.31;68.62
51297;BME280;37380;45.186;9.792;2023-04-23T11:40:45;100614.06;;;23.22;66.90
51297;BME280;37380;45.186;9.792;2023-04-23T11:43:17;100566.38;;;23.94;63.97
51297;BME280;37380;45.186;9.792;2023-04-23T11:45:47;100577.16;;;23.88;69.50
51297;BME280;37380;45.186;9.792;2023-04-23T11:48:16;100608.09;;;23.53;67.51
51297;BME280;37380;45.186;9.792;2023-04-23T11:50:43;100507.22;;;23.32;66.15
51297;BME280;37380;45.186;9.792;2023-04-23T11:53:11;100513.13;;;23.47;63.11
51297;BME280;37380;45.186;9.792;2023-04-23T11:55:38;100593.94;;;23.94;61.02
51297;BME280;37380;45.186;9.792;2023-04-23T11:58:09;100578.66;;;23.59;64.69
51297;BME280;37380;45.186;9.792;2023-04-23T12:00:37;100582.00;;;23.70;63.56
51297;BME280;37380;45.186;9.792;2023-04-23T12:03:04;100482.16;;;23.42;63.02
51297;BME280;37380;45.186;9.792;2023-04-23T12:05:40;100551.47;;;22.94;65.22
51297;BME280;37380;45.186;9.792;2023-04-23T12:08:14;100581.66;;;22.94;66.09
51297;BME280;37380;45.186;9.792;2023-04-23T12:13:22;100555.53;;;22.65;70.54
51297;BME280;37380;45.186;9.792;2023-04-23T12:15:53;100548.09;;;22.34;73.83
51297;BME280;37380;45.186;9.792;2023-04-23T12:18:32;100538.97;;;22.48;68.74
51297;BME280;37380;45.186;9.792;2023-04-23T12:21:45;100553.41;;;22.34;70.83
51297;BME280;37380;45.186;9.792;2023-04-23T12:24:48;100547.19;;;22.87;69.52
51297;BME280;37380;45.186;9.792;2023-04-23T12:27:21;100541.44;;;23.53;65.02
51297;BME280;37380;45.186;9.792;2023-04-23T12:30:27;100554.72;;;23.98;63.52
51297;BME280;37380;45.186;9.792;2023-04-23T12:33:03;100516.41;;;23.60;64.16
51297;BME280;37380;45.186;9.792;2023-04-23T12:35:38;100539.22;;;23.32;63.54
51297;BME280;37380;45.186;9.792;2023-04-23T12:38:05;100519.78;;;23.26;64.55
51297;BME280;37380;45.186;9.792;2023-04-23T12:40:39;100466.38;;;23.30;63.09
51297;BME280;37380;45.186;9.792;2023-04-23T12:43:33;100524.13;;;24.11;61.40
51297;BME280;37380;45.186;9.792;2023-04-23T12:46:00;100504.50;;;24.51;65.34
51297;BME280;37380;45.186;9.792;2023-04-23T12:48:28;100440.06;;;23.93;68.51
51297;BME280;37380;45.186;9.792;2023-04-23T12:51:01;100502.81;;;25.13;62.02
51297;BME280;37380;45.186;9.792;2023-04-23T12:53:56;100534.91;;;26.03;64.23
51297;BME280;37380;45.186;9.792;2023-04-23T12:56:23;100470.91;;;25.67;61.70
51297;BME280;37380;45.186;9.792;2023-04-23T12:58:50;100482.13;;;24.88;60.13
51297;BME280;37380;45.186;9.792;2023-04-23T13:01:17;100458.97;;;25.20;56.87
51297;BME280;37380;45.186;9.792;2023-04-23T13:03:44;100407.47;;;24.51;57.22
51297;BME280;37380;45.186;9.792;2023-04-23T13:06:11;100467.97;;;24.16;59.25
51297;BME280;37380;45.186;9.792;2023-04-23T13:08:38;100500.28;;;24.41;57.73
51297;BME280;37380;45.186;9.792;2023-04-23T13:11:05;100510.41;;;24.64;55.82
51297;BME280;37380;45.186;9.792;2023-04-23T13:13:32;100364.72;;;24.51;57.54
51297;BME280;37380;45.186;9.792;2023-04-23T13:15:59;100483.41;;;25.67;53.87
51297;BME280;37380;45.186;9.792;2023-04-23T13:18:27;100475.34;;;26.23;55.01